Terminal Aerodrome Forecast
Issued by NWS

Home | Current Version | Previous Version | Text Only | Print | Product List | Glossary Off
Versions: 1 2 3 4 5 6 7 8 9 10 11 12 13 14 15

000
FTUS43 KIWX 231400 AAB
TAFSBN
TAF AMD
KSBN 231433Z 2315/2412 01012KT P6SM BKN015
     FM231600 01012G20KT P6SM SCT025
      TEMPO 2316/2317 BKN025
     FM240000 36010KT P6SM FEW250
     FM240900 02004KT P6SM SKC=

USA.gov is the U.S. government's official web portal to all federal, state and local government web resources and services.